Flight Track Log - Related Links

Times and Time Zones

All times are in EST time to prevent confusion due to time zone crossing. See the N7304T flight status page for this flight to view local times or setup timezone preferences in your user account.

Time Position Orientation Groundspeed Altitude Reporting Facility
EST Latitude Longitude Course Direction KTS MPH feet Rate Location/Type
Sun 12:27:55 PM 42.1256 -72.7614 202° Southwest 117 135 2,800  Level Boston Center
Sun 12:28:12 PM 42.1164 -72.7669 204° Southwest 115 132 3,000 968 Climbing Boston Center
Sun 12:28:57 PM 42.0992 -72.7867 220° Southwest 113 130 3,800 1,143 Climbing Boston Center
Sun 12:29:15 PM 42.0947 -72.7944 232° Southwest 108 124 4,200 700 Climbing Boston Center
Sun 12:29:57 PM 42.0800 -72.8172 229° Southwest 122 140 4,500 200 Climbing Boston Center
Sun 12:30:15 PM 42.0708 -72.8281 221° Southwest 133 153 4,400 -98 Descending Boston Center
Sun 12:30:58 PM 42.0469 -72.8519 217° Southwest 159 183 4,400  Level Boston Center
Sun 12:31:16 PM 42.0364 -72.8600 210° Southwest 151 174 4,400 98 Level Boston Center
Sun 12:31:59 PM 42.0097 -72.8875 217° Southwest 149 171 4,500 98 Climbing Boston Center
Sun 12:32:17 PM 42.0019 -72.8956 218° Southwest 147 169 4,500  Level Boston Center
Sun 12:32:59 PM 41.9794 -72.9200 219° Southwest 148 170 4,500  Level Boston Center
Sun 12:33:17 PM 41.9694 -72.9303 217° Southwest 150 173 4,500  Level Boston Center
Sun 12:34:00 PM 41.9411 -72.9494 207° Southwest 157 181 4,500  Level Boston Center
Sun 12:34:21 PM 41.9300 -72.9556 202° Southwest 159 183 4,500  Level Boston Center
Sun 12:35:00 PM 41.9003 -72.9692 199° South 160 184 4,500 98 Level Boston Center
Sun 12:35:22 PM 41.8889 -72.9758 204° Southwest 159 183 4,600 188 Climbing Boston Center
Sun 12:36:04 PM 41.8625 -72.9958 209° Southwest 152 175 4,700 100 Climbing Boston Center
Sun 12:36:22 PM 41.8500 -73.0064 212° Southwest 152 175 4,700 -98 Level Boston Center
Sun 12:37:05 PM 41.8236 -73.0281 211° Southwest 155 178 4,600 -98 Descending Boston Center
Sun 12:37:23 PM 41.8125 -73.0381 214° Southwest 160 184 4,600  Level Boston Center
Sun 12:38:06 PM 41.7861 -73.0633 216° Southwest 161 185 4,600 98 Level Boston Center
Sun 12:38:24 PM 41.7772 -73.0750 224° Southwest 160 184 4,700  Climbing Boston Center
Sun 12:39:12 PM 41.7514 -73.1058 222° Southwest 160 184 4,600 -100 Descending Boston Center
Sun 12:39:24 PM 41.7442 -73.1133 218° Southwest 157 181 4,600 98 Level Boston Center
Sun 12:40:13 PM 41.7156 -73.1444 219° Southwest 160 184 4,700  Climbing Boston Center
Sun 12:40:28 PM 41.7081 -73.1561 229° Southwest 160 184 4,600 80 Descending Boston Center
Sun 12:41:28 PM 41.6753 -73.1956 222° Southwest 160 184 4,800 50 Climbing Boston Center
Sun 12:42:28 PM 41.6422 -73.2353 222° Southwest 160 184 4,700 -49 Descending Boston Center
Sun 12:43:30 PM 41.6072 -73.2739 220° Southwest 162 186 4,700 -49 Level Boston Center
Sun 12:44:30 PM 41.5717 -73.3178 223° Southwest 162 186 4,600 -49 Descending Boston Center
Sun 12:45:33 PM 41.5386 -73.3606 224° Southwest 164 189 4,600  Level Boston Center
Sun 12:46:34 PM 41.5050 -73.3986 220° Southwest 160 184 4,600 49 Level Boston Center
Sun 12:47:35 PM 41.4719 -73.4358 220° Southwest 156 180 4,700 49 Climbing Boston Center
Sun 12:48:36 PM 41.4392 -73.4811 226° Southwest 160 184 4,700 -50 Level Boston Center
Sun 12:49:36 PM 41.4111 -73.5267 231° Southwest 158 182 4,600 -50 Descending Boston Center
Sun 12:50:37 PM 41.3819 -73.5708 229° Southwest 159 183 4,600  Level Boston Center
Sun 12:51:18 PM 41.3667 -73.6000 235° Southwest 158 182 4,600 -126 Level New York TRACON
Sun 12:52:12 PM 41.3500 -73.6500 246° West 159 183 4,400 -53 Descending New York TRACON
Sun 12:53:12 PM 41.3167 -73.6833 217° Southwest 159 183 4,500 50 Climbing New York TRACON
Sun 12:54:12 PM 41.2833 -73.7333 228° Southwest 155 178 4,500 -200 Level New York TRACON
Sun 12:55:12 PM 41.2500 -73.7833 228° Southwest 156 180 4,100 -524 Descending New York TRACON
Sun 12:56:18 PM 41.2500 -73.8333 270° West 144 166 3,400 -619 Descending New York TRACON
Sun 12:57:18 PM 41.2333 -73.8833 246° West 151 174 2,800 -400 Descending New York TRACON
Sun 12:58:18 PM 41.2000 -73.9167 217° Southwest 149 171 2,600 -150 Descending New York TRACON
Sun 12:59:18 PM 41.1667 -73.9500 217° Southwest 148 170 2,500 -50 Descending New York TRACON
Sun 01:00:18 PM 41.1333 -73.9833 217° Southwest 141 162 2,500 -50 Level New York TRACON
Sun 01:01:18 PM 41.1000 -74.0167 217° Southwest 147 169 2,400 50 Descending New York TRACON
Sun 01:02:18 PM 41.0833 -74.0500 236° Southwest 140 161 2,600 150 Climbing New York TRACON
Sun 01:03:18 PM 41.0500 -74.0833 217° Southwest 138 159 2,700 -50 Climbing New York TRACON
Sun 01:04:18 PM 41.0333 -74.1333 246° West 147 169 2,500 -150 Descending New York TRACON
Sun 01:05:18 PM 41.0167 -74.1667 236° Southwest 137 158 2,400 -50 Descending New York TRACON
Sun 01:06:18 PM 40.9833 -74.2000 217° Southwest 141 162 2,400 -200 Level New York TRACON
Sun 01:07:18 PM 40.9500 -74.2167 201° Southwest 148 170 2,000 -100 Descending New York TRACON
Sun 01:08:18 PM 40.9333 -74.2500 237° Southwest 108 124 2,200 -100 Climbing New York TRACON
Sun 01:09:18 PM 40.9167 -74.3000 246° West 110 127 1,800 -600 Descending New York TRACON
Sun 01:10:18 PM 40.8833 -74.3000 180° South 113 130 1,000 -267 Descending New York TRACON
Sun 01:12:18 PM 40.8500 -74.3000 180° South 104 120 1,000  Level New York TRACON

Login

Don't have an account? Register now (free) for customized features, flight alerts, and more!